createdAt,value
2018-06-19T00:01:08.683Z,98.50
2018-06-19T00:03:36.795Z,98.30
2018-06-19T00:06:05.065Z,97.90
2018-06-19T00:08:33.618Z,98.00
2018-06-19T00:13:30.100Z,98.50
2018-06-19T00:18:28.938Z,98.70
2018-06-19T00:20:59.919Z,99.00
2018-06-19T00:30:52.372Z,99.20
2018-06-19T00:35:48.596Z,99.40
2018-06-19T00:38:16.766Z,99.40
2018-06-19T00:40:45.139Z,99.40
2018-06-19T00:43:13.364Z,99.40
2018-06-19T00:45:41.639Z,99.50
2018-06-19T00:48:10.041Z,99.60
2018-06-19T00:50:38.365Z,99.60
2018-06-19T00:53:06.547Z,99.90
2018-06-19T00:55:34.873Z,99.70
2018-06-19T00:58:03.774Z,99.70
2018-06-19T01:00:32.042Z,99.80
2018-06-19T01:03:00.440Z,99.90
2018-06-19T01:05:28.868Z,99.90
2018-06-19T01:07:57.236Z,99.90
2018-06-19T01:10:25.441Z,99.90
2018-06-19T01:12:53.462Z,99.90
2018-06-19T01:15:21.740Z,99.90
2018-06-19T01:17:50.016Z,99.90
2018-06-19T01:22:46.499Z,99.90
2018-06-19T01:25:14.932Z,99.90
2018-06-19T01:27:43.177Z,99.90
2018-06-19T01:30:11.515Z,99.90
2018-06-19T01:32:39.782Z,99.80
2018-06-19T01:35:08.316Z,99.70
2018-06-19T01:40:04.681Z,99.70
2018-06-19T01:42:32.992Z,99.80
2018-06-19T01:45:45.455Z,99.70
2018-06-19T01:48:13.661Z,99.90
2018-06-19T01:50:41.847Z,99.90
2018-06-19T01:53:09.953Z,99.90
2018-06-19T01:58:06.445Z,99.90
2018-06-19T02:00:34.845Z,99.90
2018-06-19T02:03:03.160Z,99.90
2018-06-19T02:05:31.417Z,99.90
2018-06-19T02:07:59.655Z,99.90
2018-06-19T02:12:56.022Z,99.90
2018-06-19T02:15:24.542Z,99.90
2018-06-19T02:17:52.915Z,99.90
2018-06-19T02:20:21.525Z,99.90
2018-06-19T02:22:49.955Z,99.90
2018-06-19T02:27:46.358Z,99.90
2018-06-19T02:30:14.525Z,99.90
2018-06-19T02:32:42.645Z,99.90
2018-06-19T02:35:11.031Z,99.90
2018-06-19T02:37:39.305Z,99.90
2018-06-19T02:40:07.726Z,99.90
2018-06-19T02:42:36.040Z,99.90
2018-06-19T02:45:04.619Z,99.50
2018-06-19T02:47:33.015Z,99.40
2018-06-19T02:50:01.417Z,99.20
2018-06-19T02:52:29.707Z,99.30
2018-06-19T02:57:26.190Z,99.00
2018-06-19T02:59:54.723Z,99.40
2018-06-19T03:02:22.898Z,99.50
2018-06-19T03:04:51.191Z,99.70
2018-06-19T03:07:19.579Z,99.90
2018-06-19T03:09:47.663Z,99.90
2018-06-19T03:12:15.920Z,99.90
2018-06-19T03:14:44.253Z,99.90
2018-06-19T03:17:12.799Z,99.90
2018-06-19T03:19:41.183Z,99.90
2018-06-19T03:29:33.653Z,99.90
2018-06-19T03:32:01.965Z,99.90
2018-06-19T03:39:26.423Z,99.90
2018-06-19T03:41:55.326Z,99.80
2018-06-19T03:44:23.619Z,99.40
2018-06-19T03:46:52.055Z,99.30
2018-06-19T03:51:48.546Z,98.80
2018-06-19T03:56:44.837Z,98.40
2018-06-19T03:59:14.243Z,98.30
2018-06-19T04:01:42.531Z,98.10
2018-06-19T04:04:11.253Z,98.00
2018-06-19T04:06:39.533Z,97.40
2018-06-19T04:09:08.483Z,97.20
2018-06-19T04:11:37.077Z,97.10
2018-06-19T04:14:05.480Z,96.90
2018-06-19T04:16:33.758Z,96.80
2018-06-19T04:21:30.343Z,97.10
2018-06-19T04:23:58.663Z,96.60
2018-06-19T04:28:54.634Z,96.50
2018-06-19T04:33:50.836Z,96.70
2018-06-19T04:36:19.235Z,96.40
2018-06-19T04:38:47.828Z,96.30
2018-06-19T04:43:44.013Z,96.60
2018-06-19T04:48:40.474Z,95.10
2018-06-19T04:51:08.684Z,93.00
2018-06-19T04:53:37.788Z,90.10
2018-06-19T04:56:06.025Z,85.10
2018-06-19T04:58:34.416Z,80.50
2018-06-19T05:01:02.785Z,78.30
2018-06-19T05:03:31.099Z,78.70
2018-06-19T05:05:59.366Z,79.30
2018-06-19T05:08:27.511Z,80.20
2018-06-19T05:10:55.802Z,81.40
2018-06-19T05:15:52.404Z,82.70
2018-06-19T05:18:20.698Z,83.00
2018-06-19T05:20:49.065Z,83.40
2018-06-19T05:23:17.287Z,83.10
2018-06-19T05:25:46.328Z,82.60
2018-06-19T05:28:14.701Z,83.50
2018-06-19T05:30:42.878Z,85.20
2018-06-19T05:35:39.340Z,85.80
2018-06-19T05:38:07.797Z,86.60
2018-06-19T05:40:36.104Z,86.50
2018-06-19T05:43:04.874Z,87.80
2018-06-19T05:45:32.991Z,88.60
2018-06-19T05:50:29.480Z,90.00
2018-06-19T05:55:25.851Z,90.10
2018-06-19T05:57:54.174Z,90.60
2018-06-19T06:00:22.527Z,90.70
2018-06-19T06:02:50.858Z,90.70
2018-06-19T06:07:48.045Z,90.20
2018-06-19T06:12:44.148Z,89.80
2018-06-19T06:15:12.657Z,89.60
2018-06-19T06:20:08.916Z,89.10
2018-06-19T06:22:37.264Z,89.20
2018-06-19T06:25:05.629Z,87.70
2018-06-19T06:27:34.414Z,86.60
2018-06-19T06:30:02.945Z,85.40
2018-06-19T06:34:59.232Z,80.50
2018-06-19T06:39:55.518Z,77.90
2018-06-19T06:42:24.037Z,75.70
2018-06-19T06:44:52.364Z,75.40
2018-06-19T06:47:20.631Z,76.60
2018-06-19T06:52:17.444Z,77.90
2018-06-19T06:54:45.728Z,79.10
2018-06-19T06:57:14.106Z,80.20
2018-06-19T06:59:42.630Z,81.60
2018-06-19T07:02:10.805Z,84.00
2018-06-19T07:04:39.121Z,84.60
2018-06-19T07:07:07.403Z,85.20
2018-06-19T07:09:35.801Z,85.80
2018-06-19T07:12:04.945Z,85.80
2018-06-19T07:14:33.329Z,87.90
2018-06-19T07:19:29.767Z,90.30
2018-06-19T07:21:58.016Z,90.80
2018-06-19T07:26:55.133Z,91.40
2018-06-19T07:29:23.395Z,91.50
2018-06-19T07:31:51.838Z,91.60
2018-06-19T07:34:20.100Z,91.30
2018-06-19T07:39:16.474Z,91.90
2018-06-19T07:41:44.930Z,91.70
2018-06-19T07:44:13.331Z,92.10
2018-06-19T07:46:41.702Z,92.40
2018-06-19T07:51:38.075Z,92.80
2018-06-19T07:54:06.486Z,93.40
2018-06-19T08:01:31.398Z,92.90
2018-06-19T08:03:59.884Z,93.10
2018-06-19T08:08:57.184Z,93.20
2018-06-19T08:11:25.499Z,93.10
2018-06-19T08:16:22.075Z,92.70
2018-06-19T08:18:50.364Z,92.30
2018-06-19T08:21:18.794Z,92.10
2018-06-19T08:23:47.169Z,91.70
2018-06-19T08:26:15.607Z,91.40
2018-06-19T08:28:43.995Z,91.10
2018-06-19T08:31:12.171Z,90.60
2018-06-19T08:36:08.504Z,89.80
2018-06-19T08:38:36.844Z,88.00
2018-06-19T08:41:05.146Z,86.60
2018-06-19T08:43:33.565Z,85.80
2018-06-19T08:48:30.087Z,85.00
2018-06-19T08:50:58.361Z,84.20
2018-06-19T08:53:27.374Z,84.20
2018-06-19T08:55:55.683Z,83.10
2018-06-19T08:58:23.829Z,83.40
2018-06-19T09:00:52.573Z,83.20
2018-06-19T09:03:20.963Z,83.00
2018-06-19T09:05:49.273Z,82.50
2018-06-19T09:08:17.660Z,81.30
2018-06-19T09:13:14.023Z,79.90
2018-06-19T09:15:42.557Z,79.30
2018-06-19T09:18:10.862Z,77.60
2018-06-19T09:20:39.261Z,77.20
2018-06-19T09:23:07.646Z,76.80
2018-06-19T09:30:32.127Z,79.20
2018-06-19T09:35:28.533Z,81.70
2018-06-19T09:37:57.167Z,83.20
2018-06-19T09:40:25.530Z,84.10
2018-06-19T09:50:17.814Z,80.10
2018-06-19T09:52:46.409Z,80.70
2018-06-19T09:55:14.681Z,80.70
2018-06-19T09:57:43.557Z,81.60
2018-06-19T10:00:16.613Z,82.50
2018-06-19T10:02:45.113Z,83.90
2018-06-19T10:07:41.549Z,85.60
2018-06-19T10:10:09.588Z,86.30
2018-06-19T10:12:37.880Z,85.70
2018-06-19T10:20:02.851Z,81.80
2018-06-19T10:22:31.107Z,79.50
2018-06-19T10:24:59.485Z,77.60
2018-06-19T10:37:20.147Z,76.00
2018-06-19T10:42:16.614Z,76.10
2018-06-19T10:44:44.855Z,75.70
2018-06-19T10:47:13.140Z,76.00
2018-06-19T10:57:06.513Z,75.60
2018-06-19T10:59:34.677Z,74.30
2018-06-19T11:02:03.121Z,73.30
2018-06-19T11:07:00.299Z,74.10
2018-06-19T11:09:28.834Z,74.50
2018-06-19T11:14:25.316Z,75.30
2018-06-19T11:16:53.708Z,74.70
2018-06-19T11:19:22.129Z,74.60
2018-06-19T11:24:19.346Z,71.20
2018-06-19T11:26:47.527Z,70.70
2018-06-19T11:29:16.042Z,71.20
2018-06-19T11:34:12.502Z,72.80
2018-06-19T11:36:41.042Z,73.30
2018-06-19T11:39:12.326Z,73.20
2018-06-19T11:41:40.780Z,73.10
2018-06-19T11:44:09.179Z,73.40
2018-06-19T11:49:05.851Z,72.70
2018-06-19T11:51:34.181Z,72.40
2018-06-19T11:56:30.801Z,72.10
2018-06-19T11:58:59.180Z,72.70
2018-06-19T12:03:55.456Z,73.90
2018-06-19T12:08:51.867Z,76.30
2018-06-19T12:11:21.170Z,75.00
2018-06-19T12:18:45.751Z,72.30
2018-06-19T12:21:14.165Z,72.50
2018-06-19T12:23:42.705Z,74.50
2018-06-19T12:26:11.037Z,74.70
2018-06-19T12:28:39.656Z,74.20
2018-06-19T12:31:08.079Z,75.10
2018-06-19T12:33:36.416Z,75.00
2018-06-19T12:36:05.623Z,74.80
2018-06-19T12:38:33.779Z,74.20
2018-06-19T12:52:08.072Z,75.20
2018-06-19T12:55:50.321Z,74.60
2018-06-19T12:58:18.834Z,75.50
2018-06-19T13:00:47.326Z,73.50
2018-06-19T13:03:26.561Z,74.30
2018-06-19T13:08:28.387Z,76.50
2018-06-19T13:10:56.804Z,77.10
2018-06-19T13:13:36.236Z,77.10
2018-06-19T13:16:04.652Z,77.90
2018-06-19T13:18:44.371Z,77.30
2018-06-19T13:21:12.804Z,76.80
2018-06-19T13:23:41.055Z,77.30
2018-06-19T13:26:09.184Z,78.00
2018-06-19T13:30:51.874Z,77.50
2018-06-19T13:33:20.359Z,77.10
2018-06-19T13:35:48.967Z,76.60
2018-06-19T13:38:17.521Z,75.40
2018-06-19T13:41:16.714Z,74.80
2018-06-19T13:43:56.932Z,74.50
2018-06-19T13:46:25.390Z,73.10
2018-06-19T13:48:53.966Z,71.70
2018-06-19T13:51:23.341Z,71.60
2018-06-19T13:53:51.844Z,72.10
2018-06-19T13:57:45.967Z,71.90
2018-06-19T14:00:22.020Z,72.10
2018-06-19T14:02:50.552Z,70.70
2018-06-19T14:05:19.993Z,69.90
2018-06-19T14:08:07.886Z,69.10
2018-06-19T14:10:47.936Z,66.60
2018-06-19T14:18:14.966Z,65.10
2018-06-19T14:20:43.592Z,64.20
2018-06-19T14:23:12.290Z,64.00
2018-06-19T14:28:08.673Z,62.60
2018-06-19T14:33:06.055Z,61.70
2018-06-19T14:35:34.560Z,60.80
2018-06-19T14:38:02.941Z,60.10
2018-06-19T14:40:31.521Z,58.60
2018-06-19T14:42:59.583Z,58.10
2018-06-19T14:45:27.915Z,58.40
2018-06-19T14:47:56.166Z,58.80
2018-06-19T14:50:24.447Z,59.20
2018-06-19T14:52:52.784Z,58.70
2018-06-19T14:55:21.174Z,59.40
2018-06-19T14:57:49.824Z,59.80
2018-06-19T15:00:17.869Z,59.70
2018-06-19T15:05:13.963Z,60.60
2018-06-19T15:07:58.577Z,61.00
2018-06-19T15:10:26.854Z,61.90
2018-06-19T15:12:55.007Z,61.90
2018-06-19T15:15:23.298Z,61.70
2018-06-19T15:17:52.320Z,62.00
2018-06-19T15:20:20.956Z,62.20
2018-06-19T15:22:49.421Z,62.50
2018-06-19T15:25:17.890Z,62.80
2018-06-19T15:27:46.305Z,63.70
2018-06-19T15:30:14.500Z,64.70
2018-06-19T15:32:42.741Z,64.00
2018-06-19T15:35:11.008Z,63.50
2018-06-19T15:40:07.596Z,63.50
2018-06-19T15:45:04.281Z,63.70
2018-06-19T15:47:32.500Z,64.30
2018-06-19T15:50:01.172Z,64.10
2018-06-19T15:52:29.603Z,64.50
2018-06-19T15:57:26.645Z,65.40
2018-06-19T15:59:54.905Z,65.30
2018-06-19T16:02:23.184Z,65.20
2018-06-19T16:09:47.697Z,66.40
2018-06-19T16:12:16.072Z,66.00
2018-06-19T16:17:12.383Z,66.70
2018-06-19T16:19:40.767Z,67.90
2018-06-19T16:24:37.059Z,68.20
2018-06-19T16:29:33.005Z,69.20
2018-06-19T16:32:01.430Z,69.60
2018-06-19T16:39:26.186Z,71.00
2018-06-19T16:41:55.244Z,70.20
2018-06-19T16:44:23.522Z,70.00
2018-06-19T16:46:51.849Z,69.60
2018-06-19T16:49:20.133Z,70.40
2018-06-19T16:51:48.512Z,70.60
2018-06-19T16:54:16.868Z,71.20
2018-06-19T16:56:45.114Z,71.70
2018-06-19T16:59:13.512Z,71.20
2018-06-19T17:01:42.494Z,69.60
2018-06-19T17:04:11.429Z,69.80
2018-06-19T17:06:39.526Z,68.50
2018-06-19T17:11:37.363Z,68.80
2018-06-19T17:16:33.732Z,70.30
2018-06-19T17:19:02.462Z,70.50
2018-06-19T17:21:30.850Z,70.50
2018-06-19T17:23:59.269Z,70.60
2018-06-19T17:26:27.873Z,70.70
2018-06-19T17:28:56.266Z,71.70
2018-06-19T17:31:24.575Z,72.30
2018-06-19T17:33:52.877Z,72.30
2018-06-19T17:36:21.836Z,71.30
2018-06-19T17:38:50.114Z,71.40
2018-06-19T17:41:18.160Z,70.60
2018-06-19T17:46:14.775Z,70.20
2018-06-19T17:48:43.351Z,70.80
2018-06-19T17:53:40.049Z,72.10
2018-06-19T17:58:37.056Z,72.70
2018-06-19T18:03:33.566Z,73.20
2018-06-19T18:06:02.040Z,73.80
2018-06-19T18:10:58.325Z,75.60
2018-06-19T18:13:26.519Z,74.80
2018-06-19T18:15:54.813Z,75.30
2018-06-19T18:18:23.238Z,75.80
2018-06-19T18:20:51.430Z,75.80
2018-06-19T18:25:47.929Z,76.80
2018-06-19T18:30:44.286Z,78.10
2018-06-19T18:33:12.831Z,79.00
2018-06-19T18:35:41.097Z,79.80
2018-06-19T18:40:21.036Z,80.40
2018-06-19T18:42:49.436Z,82.20
2018-06-19T18:45:17.951Z,83.20
2018-06-19T18:47:46.337Z,83.90
2018-06-19T18:50:14.478Z,84.80
2018-06-19T18:52:42.662Z,85.70
2018-06-19T18:55:10.915Z,86.90
2018-06-19T18:57:39.227Z,88.20
2018-06-19T19:00:08.132Z,88.90
2018-06-19T19:02:36.411Z,89.80
2018-06-19T19:05:05.144Z,90.30
2018-06-19T19:07:33.672Z,90.70
2018-06-19T19:10:08.033Z,91.00
2018-06-19T19:12:36.485Z,91.40
2018-06-19T19:15:10.171Z,91.60
2018-06-19T19:17:43.811Z,91.90
2018-06-19T19:20:12.211Z,92.30
2018-06-19T19:22:40.595Z,92.50
2018-06-19T19:25:08.911Z,92.90
2018-06-19T19:27:42.460Z,93.10
2018-06-19T19:30:10.914Z,93.30
2018-06-19T19:32:39.457Z,93.40
2018-06-19T19:35:07.857Z,93.60
2018-06-19T19:37:41.635Z,93.60
2018-06-19T19:40:09.917Z,93.70
2018-06-19T19:47:40.028Z,94.40
2018-06-19T19:50:08.664Z,94.50
2018-06-19T19:52:36.950Z,94.60
2018-06-19T19:55:05.654Z,94.70
2018-06-19T19:57:40.220Z,94.70
2018-06-19T20:00:09.859Z,94.90
2018-06-19T20:02:39.511Z,95.10
2018-06-19T20:05:07.738Z,95.40
2018-06-19T20:12:33.708Z,95.50
2018-06-19T20:15:02.888Z,95.60
2018-06-19T20:17:31.391Z,95.80
2018-06-19T20:19:59.741Z,95.80
2018-06-19T20:22:28.281Z,95.70
2018-06-19T20:24:56.786Z,95.70
2018-06-19T20:27:25.164Z,95.60
2018-06-19T20:32:21.542Z,96.10
2018-06-19T20:34:50.873Z,96.20
2018-06-19T20:37:19.300Z,96.00
2018-06-19T20:39:47.998Z,96.10
2018-06-19T20:42:16.497Z,96.20
2018-06-19T20:44:45.099Z,96.40
2018-06-19T20:47:13.711Z,96.40
2018-06-19T20:49:42.208Z,96.60
2018-06-19T20:52:10.816Z,96.70
2018-06-19T20:54:39.361Z,96.80
2018-06-19T20:57:08.193Z,96.90
2018-06-19T20:59:36.611Z,97.00
2018-06-19T21:04:33.386Z,97.10
2018-06-19T21:07:02.078Z,97.20
2018-06-19T21:09:30.414Z,97.30
2018-06-19T21:11:59.088Z,97.40
2018-06-19T21:14:27.267Z,97.80
2018-06-19T21:16:55.636Z,97.60
2018-06-19T21:19:24.329Z,97.80
2018-06-19T21:24:20.723Z,97.90
2018-06-19T21:26:49.071Z,98.30
2018-06-19T21:29:17.524Z,98.30
2018-06-19T21:31:45.721Z,98.50
2018-06-19T21:34:13.992Z,98.60
2018-06-19T21:36:43.064Z,98.70
2018-06-19T21:39:12.145Z,98.80
2018-06-19T21:41:40.392Z,99.00
2018-06-19T21:44:08.843Z,99.10
2018-06-19T21:46:37.741Z,99.20
2018-06-19T21:51:33.912Z,99.50
2018-06-19T21:54:02.443Z,99.60
2018-06-19T21:56:31.496Z,99.70
2018-06-19T21:59:00.028Z,99.60
2018-06-19T22:01:28.459Z,99.80
2018-06-19T22:03:56.753Z,99.90
2018-06-19T22:06:24.951Z,99.90
2018-06-19T22:08:53.893Z,99.80
2018-06-19T22:11:23.402Z,99.90
2018-06-19T22:13:51.674Z,99.90
2018-06-19T22:21:16.122Z,99.90
2018-06-19T22:23:44.948Z,99.90
2018-06-19T22:26:13.251Z,99.90
2018-06-19T22:28:41.589Z,99.90
2018-06-19T22:31:09.936Z,99.90
2018-06-19T22:33:38.245Z,99.90
2018-06-19T22:36:06.579Z,99.90
2018-06-19T22:38:35.104Z,99.90
2018-06-19T22:41:03.336Z,99.90
2018-06-19T22:43:32.266Z,99.90
2018-06-19T22:46:00.646Z,99.90
2018-06-19T22:48:28.946Z,99.90
2018-06-19T22:50:57.347Z,99.90
2018-06-19T22:53:25.431Z,99.90
2018-06-19T22:55:53.752Z,99.90
2018-06-19T23:03:19.336Z,99.90
2018-06-19T23:05:47.774Z,99.90
2018-06-19T23:08:16.165Z,99.90
2018-06-19T23:10:44.466Z,99.90
2018-06-19T23:13:12.652Z,99.90
2018-06-19T23:15:40.935Z,99.90
2018-06-19T23:20:38.067Z,99.90
2018-06-19T23:23:06.584Z,99.90
2018-06-19T23:25:34.942Z,99.90
2018-06-19T23:28:03.342Z,99.90
2018-06-19T23:32:59.958Z,99.90
2018-06-19T23:37:56.653Z,99.90
2018-06-19T23:40:24.849Z,99.90
2018-06-19T23:45:21.320Z,99.90
2018-06-19T23:47:49.721Z,99.90
2018-06-19T23:50:18.041Z,99.90
2018-06-19T23:55:14.822Z,99.90
